sensor_id;sensor_type;location;lat;lon;timestamp;pressure;altitude;pressure_sealevel;temperature;humidity
69751;BME280;57335;52.288;6.056;2022-10-17T00:01:18;101696.13;;;13.14;100.00
69751;BME280;57335;52.288;6.056;2022-10-17T00:03:45;101682.78;;;13.09;100.00
69751;BME280;57335;52.288;6.056;2022-10-17T00:06:13;101692.91;;;13.19;100.00
69751;BME280;57335;52.288;6.056;2022-10-17T00:08:41;101689.66;;;13.17;100.00
69751;BME280;57335;52.288;6.056;2022-10-17T00:11:15;101694.09;;;13.16;100.00
69751;BME280;57335;52.288;6.056;2022-10-17T00:13:42;101674.66;;;13.04;100.00
69751;BME280;57335;52.288;6.056;2022-10-17T00:16:08;101683.97;;;13.07;100.00
69751;BME280;57335;52.288;6.056;2022-10-17T00:18:35;101669.81;;;13.01;100.00
69751;BME280;57335;52.288;6.056;2022-10-17T00:21:01;101678.31;;;13.03;100.00
69751;BME280;57335;52.288;6.056;2022-10-17T00:23:27;101674.66;;;13.04;100.00
69751;BME280;57335;52.288;6.056;2022-10-17T00:26:02;101682.13;;;13.01;100.00
69751;BME280;57335;52.288;6.056;2022-10-17T00:28:29;101678.91;;;12.98;100.00
69751;BME280;57335;52.288;6.056;2022-10-17T00:31:01;101677.31;;;12.97;100.00
69751;BME280;57335;52.288;6.056;2022-10-17T00:33:28;101674.66;;;12.97;100.00
69751;BME280;57335;52.288;6.056;2022-10-17T00:36:11;101669.38;;;12.91;100.00
69751;BME280;57335;52.288;6.056;2022-10-17T00:38:40;101674.44;;;12.92;100.00
69751;BME280;57335;52.288;6.056;2022-10-17T00:41:13;101668.78;;;12.89;100.00
69751;BME280;57335;52.288;6.056;2022-10-17T00:44:01;101668.16;;;12.87;100.00
69751;BME280;57335;52.288;6.056;2022-10-17T00:46:34;101663.31;;;12.84;100.00
69751;BME280;57335;52.288;6.056;2022-10-17T00:49:02;101661.91;;;12.81;100.00
69751;BME280;57335;52.288;6.056;2022-10-17T00:51:36;101658.66;;;12.79;100.00
69751;BME280;57335;52.288;6.056;2022-10-17T00:54:03;101647.91;;;12.74;100.00
69751;BME280;57335;52.288;6.056;2022-10-17T00:56:30;101656.03;;;12.79;100.00
69751;BME280;57335;52.288;6.056;2022-10-17T00:58:57;101638.81;;;12.70;100.00
69751;BME280;57335;52.288;6.056;2022-10-17T01:01:23;101645.50;;;12.79;100.00
69751;BME280;57335;52.288;6.056;2022-10-17T01:03:50;101645.91;;;12.83;100.00
69751;BME280;57335;52.288;6.056;2022-10-17T01:06:17;101643.88;;;12.78;100.00
69751;BME280;57335;52.288;6.056;2022-10-17T01:08:43;101655.22;;;12.85;100.00
69751;BME280;57335;52.288;6.056;2022-10-17T01:11:23;101657.03;;;12.85;100.00
69751;BME280;57335;52.288;6.056;2022-10-17T01:16:38;101643.88;;;12.85;100.00
69751;BME280;57335;52.288;6.056;2022-10-17T01:19:29;101653.59;;;12.84;100.00
69751;BME280;57335;52.288;6.056;2022-10-17T01:22:11;101648.34;;;12.84;100.00
69751;BME280;57335;52.288;6.056;2022-10-17T01:25:05;101639.41;;;12.78;100.00
69751;BME280;57335;52.288;6.056;2022-10-17T01:28:15;101640.44;;;12.84;100.00
69751;BME280;57335;52.288;6.056;2022-10-17T01:36:14;101636.00;;;12.78;100.00
69751;BME280;57335;52.288;6.056;2022-10-17T01:41:44;101633.78;;;12.82;100.00
69751;BME280;57335;52.288;6.056;2022-10-17T01:47:12;101634.19;;;12.85;100.00
69751;BME280;57335;52.288;6.056;2022-10-17T01:49:42;101629.53;;;12.87;100.00
69751;BME280;57335;52.288;6.056;2022-10-17T01:52:26;101618.41;;;12.85;100.00
69751;BME280;57335;52.288;6.056;2022-10-17T01:55:07;101614.56;;;12.88;100.00
69751;BME280;57335;52.288;6.056;2022-10-17T01:57:42;101612.72;;;12.88;100.00
69751;BME280;57335;52.288;6.056;2022-10-17T02:00:14;101609.91;;;12.90;100.00
69751;BME280;57335;52.288;6.056;2022-10-17T02:02:43;101620.22;;;12.91;100.00
69751;BME280;57335;52.288;6.056;2022-10-17T02:05:11;101617.59;;;12.91;100.00
69751;BME280;57335;52.288;6.056;2022-10-17T02:07:40;101612.72;;;12.88;100.00
69751;BME280;57335;52.288;6.056;2022-10-17T02:10:16;101602.19;;;12.88;100.00
69751;BME280;57335;52.288;6.056;2022-10-17T02:12:50;101597.34;;;12.85;100.00
69751;BME280;57335;52.288;6.056;2022-10-17T02:15:41;101600.97;;;12.91;100.00
69751;BME280;57335;52.288;6.056;2022-10-17T02:18:22;101597.53;;;12.90;100.00
69751;BME280;57335;52.288;6.056;2022-10-17T02:21:00;101596.53;;;12.98;100.00
69751;BME280;57335;52.288;6.056;2022-10-17T02:26:58;101601.78;;;12.98;100.00
69751;BME280;57335;52.288;6.056;2022-10-17T02:29:33;101592.69;;;12.94;100.00
69751;BME280;57335;52.288;6.056;2022-10-17T02:32:10;101590.66;;;12.96;100.00
69751;BME280;57335;52.288;6.056;2022-10-17T02:34:41;101574.69;;;12.97;100.00
69751;BME280;57335;52.288;6.056;2022-10-17T02:37:12;101586.19;;;12.96;100.00
69751;BME280;57335;52.288;6.056;2022-10-17T02:39:41;101556.25;;;12.91;100.00
69751;BME280;57335;52.288;6.056;2022-10-17T02:42:10;101552.81;;;12.90;100.00
69751;BME280;57335;52.288;6.056;2022-10-17T02:44:41;101563.56;;;12.95;100.00
69751;BME280;57335;52.288;6.056;2022-10-17T02:47:15;101559.69;;;12.98;100.00
69751;BME280;57335;52.288;6.056;2022-10-17T02:49:49;101562.31;;;12.98;100.00
69751;BME280;57335;52.288;6.056;2022-10-17T02:52:22;101568.63;;;12.97;100.00
69751;BME280;57335;52.288;6.056;2022-10-17T02:55:02;101567.41;;;13.00;100.00
69751;BME280;57335;52.288;6.056;2022-10-17T02:57:43;101567.78;;;12.96;100.00
69751;BME280;57335;52.288;6.056;2022-10-17T03:00:13;101578.72;;;13.00;100.00
69751;BME280;57335;52.288;6.056;2022-10-17T03:02:46;101584.19;;;12.98;100.00
69751;BME280;57335;52.288;6.056;2022-10-17T03:05:19;101575.09;;;13.01;100.00
69751;BME280;57335;52.288;6.056;2022-10-17T03:07:45;101575.69;;;13.03;100.00
69751;BME280;57335;52.288;6.056;2022-10-17T03:10:12;101572.84;;;13.05;100.00
69751;BME280;57335;52.288;6.056;2022-10-17T03:12:38;101569.22;;;13.06;100.00
69751;BME280;57335;52.288;6.056;2022-10-17T03:15:05;101568.19;;;13.07;100.00
69751;BME280;57335;52.288;6.056;2022-10-17T03:17:32;101569.00;;;13.07;100.00
69751;BME280;57335;52.288;6.056;2022-10-17T03:19:58;101574.66;;;13.11;100.00
69751;BME280;57335;52.288;6.056;2022-10-17T03:22:25;101576.28;;;13.12;100.00
69751;BME280;57335;52.288;6.056;2022-10-17T03:24:52;101573.66;;;13.12;100.00
69751;BME280;57335;52.288;6.056;2022-10-17T03:27:18;101559.28;;;13.08;100.00
69751;BME280;57335;52.288;6.056;2022-10-17T03:29:44;101572.84;;;13.11;100.00
69751;BME280;57335;52.288;6.056;2022-10-17T03:32:11;101561.91;;;13.08;100.00
69751;BME280;57335;52.288;6.056;2022-10-17T03:34:37;101572.22;;;13.16;100.00
69751;BME280;57335;52.288;6.056;2022-10-17T03:37:04;101569.00;;;13.14;100.00
69751;BME280;57335;52.288;6.056;2022-10-17T03:39:30;101565.97;;;13.17;100.00
69751;BME280;57335;52.288;6.056;2022-10-17T03:41:56;101569.41;;;13.17;100.00
69751;BME280;57335;52.288;6.056;2022-10-17T03:44:23;101583.56;;;13.23;100.00
69751;BME280;57335;52.288;6.056;2022-10-17T03:46:49;101573.44;;;13.20;100.00
69751;BME280;57335;52.288;6.056;2022-10-17T03:49:15;101565.34;;;13.22;100.00
69751;BME280;57335;52.288;6.056;2022-10-17T03:51:42;101566.75;;;13.24;100.00
69751;BME280;57335;52.288;6.056;2022-10-17T03:54:08;101556.41;;;13.23;100.00
69751;BME280;57335;52.288;6.056;2022-10-17T03:56:34;101572.22;;;13.36;100.00
69751;BME280;57335;52.288;6.056;2022-10-17T03:59:01;101581.53;;;13.39;100.00
69751;BME280;57335;52.288;6.056;2022-10-17T04:01:27;101577.47;;;13.43;100.00
69751;BME280;57335;52.288;6.056;2022-10-17T04:03:55;101574.22;;;13.47;100.00
69751;BME280;57335;52.288;6.056;2022-10-17T04:06:22;101578.06;;;13.51;100.00
69751;BME280;57335;52.288;6.056;2022-10-17T04:08:49;101572.97;;;13.56;100.00
69751;BME280;57335;52.288;6.056;2022-10-17T04:11:19;101574.41;;;13.59;100.00
69751;BME280;57335;52.288;6.056;2022-10-17T04:13:46;101573.75;;;13.64;100.00
69751;BME280;57335;52.288;6.056;2022-10-17T04:16:15;101587.53;;;13.66;100.00
69751;BME280;57335;52.288;6.056;2022-10-17T04:18:42;101580.03;;;13.69;100.00
69751;BME280;57335;52.288;6.056;2022-10-17T04:21:09;101580.63;;;13.71;100.00
69751;BME280;57335;52.288;6.056;2022-10-17T04:23:36;101579.19;;;13.75;100.00
69751;BME280;57335;52.288;6.056;2022-10-17T04:26:03;101575.31;;;13.78;100.00
69751;BME280;57335;52.288;6.056;2022-10-17T04:28:31;101574.09;;;13.87;100.00
69751;BME280;57335;52.288;6.056;2022-10-17T04:30:59;101576.28;;;13.90;100.00
69751;BME280;57335;52.288;6.056;2022-10-17T04:33:26;101574.69;;;13.89;100.00
69751;BME280;57335;52.288;6.056;2022-10-17T04:36:07;101570.81;;;13.92;100.00
69751;BME280;57335;52.288;6.056;2022-10-17T04:38:35;101574.03;;;13.94;100.00
69751;BME280;57335;52.288;6.056;2022-10-17T04:41:04;101583.34;;;13.96;100.00
69751;BME280;57335;52.288;6.056;2022-10-17T04:43:33;101588.03;;;13.94;100.00
69751;BME280;57335;52.288;6.056;2022-10-17T04:46:01;101574.25;;;13.92;100.00
69751;BME280;57335;52.288;6.056;2022-10-17T04:48:28;101582.56;;;13.96;100.00
69751;BME280;57335;52.288;6.056;2022-10-17T04:50:57;101572.41;;;13.93;100.00
69751;BME280;57335;52.288;6.056;2022-10-17T04:53:24;101590.81;;;14.06;100.00
69751;BME280;57335;52.288;6.056;2022-10-17T04:55:50;101572.41;;;14.00;100.00
69751;BME280;57335;52.288;6.056;2022-10-17T04:58:16;101569.97;;;13.98;100.00
69751;BME280;57335;52.288;6.056;2022-10-17T05:00:43;101584.75;;;13.99;100.00
69751;BME280;57335;52.288;6.056;2022-10-17T05:03:09;101584.34;;;14.02;100.00
69751;BME280;57335;52.288;6.056;2022-10-17T05:05:37;101595.44;;;14.11;100.00
69751;BME280;57335;52.288;6.056;2022-10-17T05:08:04;101597.47;;;14.15;100.00
69751;BME280;57335;52.288;6.056;2022-10-17T05:10:38;101593.59;;;14.18;100.00
69751;BME280;57335;52.288;6.056;2022-10-17T05:13:05;101587.28;;;14.19;100.00
69751;BME280;57335;52.288;6.056;2022-10-17T05:15:31;101584.44;;;14.21;100.00
69751;BME280;57335;52.288;6.056;2022-10-17T05:17:58;101599.84;;;14.24;100.00
69751;BME280;57335;52.288;6.056;2022-10-17T05:20:24;101601.19;;;14.33;100.00
69751;BME280;57335;52.288;6.056;2022-10-17T05:22:51;101610.69;;;14.41;100.00
69751;BME280;57335;52.288;6.056;2022-10-17T05:25:18;101611.50;;;14.41;100.00
69751;BME280;57335;52.288;6.056;2022-10-17T05:27:44;101622.41;;;14.51;100.00
69751;BME280;57335;52.288;6.056;2022-10-17T05:30:11;101613.31;;;14.47;100.00
69751;BME280;57335;52.288;6.056;2022-10-17T05:32:37;101615.09;;;14.53;100.00
69751;BME280;57335;52.288;6.056;2022-10-17T05:35:04;101627.66;;;14.58;100.00
69751;BME280;57335;52.288;6.056;2022-10-17T05:37:31;101625.81;;;14.59;100.00
69751;BME280;57335;52.288;6.056;2022-10-17T05:39:57;101619.19;;;14.49;100.00
69751;BME280;57335;52.288;6.056;2022-10-17T05:42:23;101622.81;;;14.48;100.00
69751;BME280;57335;52.288;6.056;2022-10-17T05:44:50;101628.03;;;14.55;100.00
69751;BME280;57335;52.288;6.056;2022-10-17T05:47:16;101613.72;;;14.44;100.00
69751;BME280;57335;52.288;6.056;2022-10-17T05:49:43;101613.31;;;14.47;100.00
69751;BME280;57335;52.288;6.056;2022-10-17T05:52:17;101611.28;;;14.49;100.00
69751;BME280;57335;52.288;6.056;2022-10-17T05:54:43;101629.72;;;14.56;100.00
69751;BME280;57335;52.288;6.056;2022-10-17T05:57:10;101633.31;;;14.55;100.00
69751;BME280;57335;52.288;6.056;2022-10-17T05:59:36;101634.53;;;14.59;100.00
69751;BME280;57335;52.288;6.056;2022-10-17T06:02:03;101627.47;;;14.60;100.00
69751;BME280;57335;52.288;6.056;2022-10-17T06:04:29;101630.84;;;14.67;100.00
69751;BME280;57335;52.288;6.056;2022-10-17T06:06:55;101635.72;;;14.70;100.00
69751;BME280;57335;52.288;6.056;2022-10-17T06:09:22;101633.06;;;14.70;100.00
69751;BME280;57335;52.288;6.056;2022-10-17T06:11:49;101625.75;;;14.72;100.00
69751;BME280;57335;52.288;6.056;2022-10-17T06:14:15;101625.91;;;14.77;100.00
69751;BME280;57335;52.288;6.056;2022-10-17T06:16:42;101618.63;;;14.72;100.00
69751;BME280;57335;52.288;6.056;2022-10-17T06:19:08;101631.94;;;14.84;100.00
69751;BME280;57335;52.288;6.056;2022-10-17T06:21:34;101632.16;;;14.83;100.00
69751;BME280;57335;52.288;6.056;2022-10-17T06:24:01;101639.28;;;14.82;100.00
69751;BME280;57335;52.288;6.056;2022-10-17T06:26:27;101632.63;;;14.73;100.00
69751;BME280;57335;52.288;6.056;2022-10-17T06:28:54;101635.66;;;14.76;100.00
69751;BME280;57335;52.288;6.056;2022-10-17T06:31:20;101641.72;;;14.77;100.00
69751;BME280;57335;52.288;6.056;2022-10-17T06:33:47;101634.06;;;14.75;100.00
69751;BME280;57335;52.288;6.056;2022-10-17T06:36:14;101639.66;;;14.86;100.00
69751;BME280;57335;52.288;6.056;2022-10-17T06:38:40;101640.03;;;14.89;100.00
69751;BME280;57335;52.288;6.056;2022-10-17T06:41:10;101644.22;;;14.97;100.00
69751;BME280;57335;52.288;6.056;2022-10-17T06:43:37;101657.38;;;15.04;100.00
69751;BME280;57335;52.288;6.056;2022-10-17T06:46:04;101668.66;;;15.18;100.00
69751;BME280;57335;52.288;6.056;2022-10-17T06:48:31;101676.28;;;15.26;100.00
69751;BME280;57335;52.288;6.056;2022-10-17T06:51:03;101669.75;;;15.28;100.00
69751;BME280;57335;52.288;6.056;2022-10-17T06:53:33;101675.22;;;15.33;100.00
69751;BME280;57335;52.288;6.056;2022-10-17T06:56:00;101672.88;;;15.44;100.00
69751;BME280;57335;52.288;6.056;2022-10-17T06:58:30;101666.94;;;15.48;100.00
69751;BME280;57335;52.288;6.056;2022-10-17T07:01:01;101681.69;;;15.56;100.00
69751;BME280;57335;52.288;6.056;2022-10-17T07:03:28;101675.53;;;15.62;100.00
69751;BME280;57335;52.288;6.056;2022-10-17T07:05:56;101673.91;;;15.61;100.00
69751;BME280;57335;52.288;6.056;2022-10-17T07:08:22;101686.91;;;15.63;100.00
69751;BME280;57335;52.288;6.056;2022-10-17T07:10:49;101686.84;;;15.69;100.00
69751;BME280;57335;52.288;6.056;2022-10-17T07:13:16;101689.09;;;15.72;100.00
69751;BME280;57335;52.288;6.056;2022-10-17T07:15:43;101706.03;;;15.83;100.00
69751;BME280;57335;52.288;6.056;2022-10-17T07:18:09;101706.56;;;15.92;100.00
69751;BME280;57335;52.288;6.056;2022-10-17T07:20:36;101699.34;;;15.99;100.00
69751;BME280;57335;52.288;6.056;2022-10-17T07:23:03;101703.19;;;16.03;100.00
69751;BME280;57335;52.288;6.056;2022-10-17T07:25:30;101702.59;;;16.01;100.00
69751;BME280;57335;52.288;6.056;2022-10-17T07:27:57;101694.31;;;15.98;100.00
69751;BME280;57335;52.288;6.056;2022-10-17T07:30:23;101698.34;;;16.00;100.00
69751;BME280;57335;52.288;6.056;2022-10-17T07:32:52;101702.38;;;16.03;100.00
69751;BME280;57335;52.288;6.056;2022-10-17T07:35:19;101724.28;;;16.10;100.00
69751;BME280;57335;52.288;6.056;2022-10-17T07:37:45;101727.25;;;16.13;100.00
69751;BME280;57335;52.288;6.056;2022-10-17T07:40:12;101730.28;;;16.17;100.00
69751;BME280;57335;52.288;6.056;2022-10-17T07:42:38;101723.81;;;16.13;100.00
69751;BME280;57335;52.288;6.056;2022-10-17T07:45:10;101727.63;;;16.17;100.00
69751;BME280;57335;52.288;6.056;2022-10-17T07:47:36;101727.41;;;16.19;100.00
69751;BME280;57335;52.288;6.056;2022-10-17T07:50:04;101723.75;;;16.20;100.00
69751;BME280;57335;52.288;6.056;2022-10-17T07:52:30;101718.69;;;16.18;100.00
69751;BME280;57335;52.288;6.056;2022-10-17T07:54:57;101716.03;;;16.18;100.00
69751;BME280;57335;52.288;6.056;2022-10-17T07:57:24;101706.63;;;16.22;100.00
69751;BME280;57335;52.288;6.056;2022-10-17T07:59:51;101707.00;;;16.26;100.00
69751;BME280;57335;52.288;6.056;2022-10-17T08:02:21;101705.97;;;16.27;100.00
69751;BME280;57335;52.288;6.056;2022-10-17T08:04:48;101713.00;;;16.33;100.00
69751;BME280;57335;52.288;6.056;2022-10-17T08:07:14;101709.19;;;16.29;100.00
69751;BME280;57335;52.288;6.056;2022-10-17T08:09:50;101709.66;;;16.26;100.00
69751;BME280;57335;52.288;6.056;2022-10-17T08:12:17;101740.63;;;16.37;100.00
69751;BME280;57335;52.288;6.056;2022-10-17T08:14:43;101736.00;;;16.32;100.00
69751;BME280;57335;52.288;6.056;2022-10-17T08:17:09;101754.81;;;16.43;100.00
69751;BME280;57335;52.288;6.056;2022-10-17T08:19:39;101775.88;;;16.49;100.00
69751;BME280;57335;52.288;6.056;2022-10-17T08:22:06;101794.09;;;16.58;100.00
69751;BME280;57335;52.288;6.056;2022-10-17T08:24:33;101788.81;;;16.58;100.00
69751;BME280;57335;52.288;6.056;2022-10-17T08:26:59;101818.16;;;16.56;100.00
69751;BME280;57335;52.288;6.056;2022-10-17T08:29:26;101847.41;;;16.61;100.00
69751;BME280;57335;52.288;6.056;2022-10-17T08:31:52;101862.63;;;16.66;100.00
69751;BME280;57335;52.288;6.056;2022-10-17T08:34:26;101865.03;;;16.67;100.00
69751;BME280;57335;52.288;6.056;2022-10-17T08:36:53;101854.13;;;16.64;100.00
69751;BME280;57335;52.288;6.056;2022-10-17T08:39:19;101860.00;;;16.66;100.00
69751;BME280;57335;52.288;6.056;2022-10-17T08:47:11;101869.75;;;16.65;100.00
69751;BME280;57335;52.288;6.056;2022-10-17T08:49:44;101850.41;;;16.65;100.00
69751;BME280;57335;52.288;6.056;2022-10-17T08:52:19;101839.63;;;16.66;100.00
69751;BME280;57335;52.288;6.056;2022-10-17T08:54:47;101829.69;;;16.62;100.00
69751;BME280;57335;52.288;6.056;2022-10-17T08:57:15;101839.63;;;16.66;100.00
69751;BME280;57335;52.288;6.056;2022-10-17T08:59:43;101844.91;;;16.66;100.00
69751;BME280;57335;52.288;6.056;2022-10-17T09:07:46;101857.69;;;16.69;100.00
69751;BME280;57335;52.288;6.056;2022-10-17T09:10:27;101871.16;;;16.68;100.00
69751;BME280;57335;52.288;6.056;2022-10-17T09:15:36;101882.09;;;16.71;100.00
69751;BME280;57335;52.288;6.056;2022-10-17T09:20:44;101926.75;;;16.68;100.00
69751;BME280;57335;52.288;6.056;2022-10-17T09:23:17;101928.34;;;16.69;100.00
69751;BME280;57335;52.288;6.056;2022-10-17T09:25:48;101919.59;;;16.68;100.00
69751;BME280;57335;52.288;6.056;2022-10-17T09:28:34;101878.94;;;16.63;100.00
69751;BME280;57335;52.288;6.056;2022-10-17T09:31:25;101885.19;;;16.68;100.00
69751;BME280;57335;52.288;6.056;2022-10-17T09:33:54;101879.69;;;16.70;100.00
69751;BME280;57335;52.288;6.056;2022-10-17T09:36:29;101874.97;;;16.72;100.00
69751;BME280;57335;52.288;6.056;2022-10-17T09:38:59;101864.59;;;16.70;100.00
69751;BME280;57335;52.288;6.056;2022-10-17T09:41:49;101863.94;;;16.75;100.00
69751;BME280;57335;52.288;6.056;2022-10-17T09:44:32;101863.94;;;16.75;100.00
69751;BME280;57335;52.288;6.056;2022-10-17T09:49:42;101885.69;;;16.77;100.00
69751;BME280;57335;52.288;6.056;2022-10-17T09:52:21;101904.81;;;16.79;100.00
69751;BME280;57335;52.288;6.056;2022-10-17T09:54:53;101903.22;;;16.78;100.00
69751;BME280;57335;52.288;6.056;2022-10-17T09:57:21;101913.56;;;16.80;100.00
69751;BME280;57335;52.288;6.056;2022-10-17T10:00:00;101908.94;;;16.75;100.00
69751;BME280;57335;52.288;6.056;2022-10-17T10:02:29;101935.56;;;16.80;100.00
69751;BME280;57335;52.288;6.056;2022-10-17T10:05:00;101948.22;;;16.78;100.00
69751;BME280;57335;52.288;6.056;2022-10-17T10:07:37;101945.00;;;16.76;100.00
69751;BME280;57335;52.288;6.056;2022-10-17T10:10:05;101953.94;;;16.75;100.00
69751;BME280;57335;52.288;6.056;2022-10-17T10:12:35;101915.72;;;16.71;100.00
69751;BME280;57335;52.288;6.056;2022-10-17T10:15:01;101894.16;;;16.67;100.00
69751;BME280;57335;52.288;6.056;2022-10-17T10:17:47;101883.94;;;16.52;100.00
69751;BME280;57335;52.288;6.056;2022-10-17T10:20:28;101883.16;;;16.52;100.00
69751;BME280;57335;52.288;6.056;2022-10-17T10:23:14;101874.38;;;16.51;100.00
69751;BME280;57335;52.288;6.056;2022-10-17T10:25:50;101872.84;;;16.44;100.00
69751;BME280;57335;52.288;6.056;2022-10-17T10:28:17;101888.28;;;16.47;100.00
69751;BME280;57335;52.288;6.056;2022-10-17T10:30:48;101883.88;;;16.41;100.00
69751;BME280;57335;52.288;6.056;2022-10-17T10:33:19;101909.81;;;16.50;100.00
69751;BME280;57335;52.288;6.056;2022-10-17T10:35:57;101916.22;;;16.61;100.00
69751;BME280;57335;52.288;6.056;2022-10-17T10:38:24;101907.31;;;16.55;100.00
69751;BME280;57335;52.288;6.056;2022-10-17T10:40:55;101926.00;;;16.61;100.00
69751;BME280;57335;52.288;6.056;2022-10-17T10:43:44;101949.97;;;16.66;100.00
69751;BME280;57335;52.288;6.056;2022-10-17T10:48:56;101965.00;;;16.72;100.00
69751;BME280;57335;52.288;6.056;2022-10-17T10:54:07;101957.97;;;16.78;100.00
69751;BME280;57335;52.288;6.056;2022-10-17T10:56:38;101950.88;;;16.78;100.00
69751;BME280;57335;52.288;6.056;2022-10-17T10:59:28;101974.66;;;16.85;100.00
69751;BME280;57335;52.288;6.056;2022-10-17T11:04:41;101973.97;;;16.89;100.00
69751;BME280;57335;52.288;6.056;2022-10-17T11:07:14;101976.00;;;16.94;100.00
69751;BME280;57335;52.288;6.056;2022-10-17T11:09:56;101986.50;;;17.01;100.00
69751;BME280;57335;52.288;6.056;2022-10-17T11:12:31;101999.53;;;17.02;100.00
69751;BME280;57335;52.288;6.056;2022-10-17T11:15:29;102004.59;;;17.04;100.00
69751;BME280;57335;52.288;6.056;2022-10-17T11:18:03;102000.31;;;17.03;100.00
69751;BME280;57335;52.288;6.056;2022-10-17T11:20:49;102005.41;;;17.04;100.00
69751;BME280;57335;52.288;6.056;2022-10-17T11:26:28;102012.53;;;17.04;100.00
69751;BME280;57335;52.288;6.056;2022-10-17T11:28:58;102026.31;;;17.12;100.00
69751;BME280;57335;52.288;6.056;2022-10-17T11:31:33;102025.94;;;17.09;100.00
69751;BME280;57335;52.288;6.056;2022-10-17T11:34:09;102039.09;;;17.15;100.00
69751;BME280;57335;52.288;6.056;2022-10-17T11:36:40;102039.34;;;17.14;100.00
69751;BME280;57335;52.288;6.056;2022-10-17T11:39:21;102033.00;;;17.15;100.00
69751;BME280;57335;52.288;6.056;2022-10-17T11:41:59;102030.13;;;17.17;100.00
69751;BME280;57335;52.288;6.056;2022-10-17T11:44:39;102030.34;;;17.15;100.00
69751;BME280;57335;52.288;6.056;2022-10-17T11:47:10;102026.91;;;17.14;100.00
69751;BME280;57335;52.288;6.056;2022-10-17T11:52:53;102028.88;;;17.19;100.00
69751;BME280;57335;52.288;6.056;2022-10-17T11:55:25;102039.03;;;17.22;100.00
69751;BME280;57335;52.288;6.056;2022-10-17T12:01:23;102044.25;;;17.29;100.00
69751;BME280;57335;52.288;6.056;2022-10-17T12:03:56;102042.56;;;17.34;100.00
69751;BME280;57335;52.288;6.056;2022-10-17T12:09:45;102039.63;;;17.43;100.00
69751;BME280;57335;52.288;6.056;2022-10-17T12:12:08;102046.84;;;17.54;100.00
69751;BME280;57335;52.288;6.056;2022-10-17T12:14:39;102055.50;;;17.61;100.00
69751;BME280;57335;52.288;6.056;2022-10-17T12:22:47;102052.69;;;17.74;100.00
69751;BME280;57335;52.288;6.056;2022-10-17T12:25:23;102065.47;;;17.78;100.00
69751;BME280;57335;52.288;6.056;2022-10-17T12:28:18;102054.66;;;17.79;100.00
69751;BME280;57335;52.288;6.056;2022-10-17T12:33:47;102050.63;;;17.77;100.00
69751;BME280;57335;52.288;6.056;2022-10-17T12:38:46;102056.44;;;17.85;100.00
69751;BME280;57335;52.288;6.056;2022-10-17T12:41:16;102063.97;;;17.88;100.00
69751;BME280;57335;52.288;6.056;2022-10-17T12:43:48;102063.97;;;17.88;100.00
69751;BME280;57335;52.288;6.056;2022-10-17T12:46:43;102064.19;;;17.87;100.00
69751;BME280;57335;52.288;6.056;2022-10-17T12:55:12;102057.66;;;17.83;100.00
69751;BME280;57335;52.288;6.056;2022-10-17T12:57:56;102066.34;;;17.90;100.00
69751;BME280;57335;52.288;6.056;2022-10-17T13:00:40;102067.19;;;17.90;100.00
69751;BME280;57335;52.288;6.056;2022-10-17T13:03:27;102058.06;;;17.86;100.00
69751;BME280;57335;52.288;6.056;2022-10-17T13:06:04;102059.44;;;17.89;100.00
69751;BME280;57335;52.288;6.056;2022-10-17T13:08:38;102062.22;;;17.94;100.00
69751;BME280;57335;52.288;6.056;2022-10-17T13:11:08;102073.66;;;17.94;100.00
69751;BME280;57335;52.288;6.056;2022-10-17T13:13:47;102072.50;;;17.90;100.00
69751;BME280;57335;52.288;6.056;2022-10-17T13:18:58;102074.59;;;17.82;100.00
69751;BME280;57335;52.288;6.056;2022-10-17T13:21:26;102084.34;;;17.88;100.00
69751;BME280;57335;52.288;6.056;2022-10-17T13:23:53;102090.09;;;17.85;100.00
69751;BME280;57335;52.288;6.056;2022-10-17T13:26:25;102091.13;;;17.84;100.00
69751;BME280;57335;52.288;6.056;2022-10-17T13:29:10;102096.44;;;17.84;100.00
69751;BME280;57335;52.288;6.056;2022-10-17T13:31:39;102094.63;;;17.84;100.00
69751;BME280;57335;52.288;6.056;2022-10-17T13:34:15;102087.75;;;17.77;100.00
69751;BME280;57335;52.288;6.056;2022-10-17T13:36:45;102095.81;;;17.82;100.00
69751;BME280;57335;52.288;6.056;2022-10-17T13:39:17;102092.56;;;17.80;100.00
69751;BME280;57335;52.288;6.056;2022-10-17T13:41:54;102099.72;;;17.79;100.00
69751;BME280;57335;52.288;6.056;2022-10-17T13:44:25;102105.41;;;17.83;100.00
69751;BME280;57335;52.288;6.056;2022-10-17T13:46:53;102109.69;;;17.84;100.00
69751;BME280;57335;52.288;6.056;2022-10-17T13:49:39;102115.00;;;17.84;100.00
69751;BME280;57335;52.288;6.056;2022-10-17T13:52:14;102108.50;;;17.80;100.00
69751;BME280;57335;52.288;6.056;2022-10-17T13:54:45;102121.31;;;17.83;100.00
69751;BME280;57335;52.288;6.056;2022-10-17T13:57:18;102131.34;;;17.81;100.00
69751;BME280;57335;52.288;6.056;2022-10-17T13:59:48;102125.22;;;17.80;100.00
69751;BME280;57335;52.288;6.056;2022-10-17T14:02:22;102128.47;;;17.82;100.00
69751;BME280;57335;52.288;6.056;2022-10-17T14:05:19;102145.41;;;17.81;100.00
69751;BME280;57335;52.288;6.056;2022-10-17T14:07:58;102134.66;;;17.76;100.00
69751;BME280;57335;52.288;6.056;2022-10-17T14:10:45;102141.56;;;17.77;100.00
69751;BME280;57335;52.288;6.056;2022-10-17T14:13:21;102143.78;;;17.80;100.00
69751;BME280;57335;52.288;6.056;2022-10-17T14:15:49;102150.13;;;17.79;100.00
69751;BME280;57335;52.288;6.056;2022-10-17T14:18:21;102160.50;;;17.81;100.00